sensor_id;sensor_type;location;lat;lon;timestamp;P1;durP1;ratioP1;P2;durP2;ratioP2
55090;SDS011;40985;53.180;5.800;2023-09-19T00:00:42;7.15;;;0.50;;
55090;SDS011;40985;53.180;5.800;2023-09-19T00:03:09;9.82;;;1.10;;
55090;SDS011;40985;53.180;5.800;2023-09-19T00:05:37;8.00;;;0.47;;
55090;SDS011;40985;53.180;5.800;2023-09-19T00:10:35;6.88;;;0.70;;
55090;SDS011;40985;53.180;5.800;2023-09-19T00:13:01;7.43;;;0.50;;
55090;SDS011;40985;53.180;5.800;2023-09-19T00:15:45;7.82;;;0.73;;
55090;SDS011;40985;53.180;5.800;2023-09-19T00:18:13;7.72;;;0.88;;
55090;SDS011;40985;53.180;5.800;2023-09-19T00:20:40;6.60;;;1.25;;
55090;SDS011;40985;53.180;5.800;2023-09-19T00:23:07;11.05;;;1.15;;
55090;SDS011;40985;53.180;5.800;2023-09-19T00:25:36;8.20;;;0.47;;
55090;SDS011;40985;53.180;5.800;2023-09-19T00:28:03;7.20;;;0.70;;
55090;SDS011;40985;53.180;5.800;2023-09-19T00:30:33;9.18;;;0.80;;
55090;SDS011;40985;53.180;5.800;2023-09-19T00:32:59;9.20;;;0.63;;
55090;SDS011;40985;53.180;5.800;2023-09-19T00:35:26;8.65;;;0.50;;
55090;SDS011;40985;53.180;5.800;2023-09-19T00:37:52;6.03;;;0.38;;
55090;SDS011;40985;53.180;5.800;2023-09-19T00:40:18;6.63;;;0.40;;
55090;SDS011;40985;53.180;5.800;2023-09-19T00:42:46;10.93;;;1.38;;
55090;SDS011;40985;53.180;5.800;2023-09-19T00:45:14;9.32;;;0.55;;
55090;SDS011;40985;53.180;5.800;2023-09-19T00:47:45;5.50;;;0.43;;
55090;SDS011;40985;53.180;5.800;2023-09-19T00:50:15;8.95;;;1.70;;
55090;SDS011;40985;53.180;5.800;2023-09-19T00:52:47;5.82;;;0.40;;
55090;SDS011;40985;53.180;5.800;2023-09-19T00:55:15;10.73;;;0.88;;
55090;SDS011;40985;53.180;5.800;2023-09-19T00:57:44;4.95;;;0.35;;
55090;SDS011;40985;53.180;5.800;2023-09-19T01:00:11;5.32;;;0.50;;
55090;SDS011;40985;53.180;5.800;2023-09-19T01:02:41;7.53;;;0.50;;
55090;SDS011;40985;53.180;5.800;2023-09-19T01:05:11;5.82;;;0.70;;
55090;SDS011;40985;53.180;5.800;2023-09-19T01:07:40;6.90;;;0.40;;
55090;SDS011;40985;53.180;5.800;2023-09-19T01:10:08;6.68;;;0.40;;
55090;SDS011;40985;53.180;5.800;2023-09-19T01:20:39;5.88;;;0.50;;
55090;SDS011;40985;53.180;5.800;2023-09-19T01:23:23;5.78;;;0.50;;
55090;SDS011;40985;53.180;5.800;2023-09-19T01:28:54;5.40;;;0.45;;
55090;SDS011;40985;53.180;5.800;2023-09-19T01:31:44;4.88;;;0.47;;
55090;SDS011;40985;53.180;5.800;2023-09-19T01:34:11;5.22;;;0.30;;
55090;SDS011;40985;53.180;5.800;2023-09-19T01:36:38;4.97;;;0.40;;
55090;SDS011;40985;53.180;5.800;2023-09-19T01:39:04;5.75;;;0.40;;
55090;SDS011;40985;53.180;5.800;2023-09-19T01:41:38;7.60;;;0.45;;
55090;SDS011;40985;53.180;5.800;2023-09-19T01:44:08;9.52;;;0.90;;
55090;SDS011;40985;53.180;5.800;2023-09-19T01:46:42;5.05;;;0.63;;
55090;SDS011;40985;53.180;5.800;2023-09-19T01:51:54;10.30;;;1.77;;
55090;SDS011;40985;53.180;5.800;2023-09-19T01:54:30;4.70;;;0.40;;
55090;SDS011;40985;53.180;5.800;2023-09-19T01:59:45;8.10;;;0.63;;
55090;SDS011;40985;53.180;5.800;2023-09-19T02:02:20;5.70;;;1.02;;
55090;SDS011;40985;53.180;5.800;2023-09-19T02:04:48;7.28;;;0.50;;
55090;SDS011;40985;53.180;5.800;2023-09-19T02:07:15;5.78;;;0.35;;
55090;SDS011;40985;53.180;5.800;2023-09-19T02:09:41;9.85;;;0.43;;
55090;SDS011;40985;53.180;5.800;2023-09-19T02:12:08;4.55;;;0.35;;
55090;SDS011;40985;53.180;5.800;2023-09-19T02:14:34;8.40;;;0.45;;
55090;SDS011;40985;53.180;5.800;2023-09-19T02:17:04;5.32;;;0.77;;
55090;SDS011;40985;53.180;5.800;2023-09-19T02:19:34;15.27;;;0.95;;
55090;SDS011;40985;53.180;5.800;2023-09-19T02:22:01;4.95;;;0.50;;
55090;SDS011;40985;53.180;5.800;2023-09-19T02:24:33;7.65;;;0.45;;
55090;SDS011;40985;53.180;5.800;2023-09-19T02:26:59;7.93;;;0.40;;
55090;SDS011;40985;53.180;5.800;2023-09-19T02:29:28;9.70;;;0.35;;
55090;SDS011;40985;53.180;5.800;2023-09-19T02:31:55;4.97;;;0.40;;
55090;SDS011;40985;53.180;5.800;2023-09-19T02:34:21;6.28;;;0.40;;
55090;SDS011;40985;53.180;5.800;2023-09-19T02:36:47;10.07;;;1.13;;
55090;SDS011;40985;53.180;5.800;2023-09-19T02:39:13;10.65;;;0.57;;
55090;SDS011;40985;53.180;5.800;2023-09-19T02:41:38;9.23;;;0.80;;
55090;SDS011;40985;53.180;5.800;2023-09-19T02:44:05;6.28;;;0.63;;
55090;SDS011;40985;53.180;5.800;2023-09-19T02:46:33;10.70;;;0.50;;
55090;SDS011;40985;53.180;5.800;2023-09-19T02:49:01;9.13;;;0.80;;
55090;SDS011;40985;53.180;5.800;2023-09-19T02:51:28;8.55;;;0.50;;
55090;SDS011;40985;53.180;5.800;2023-09-19T02:53:54;6.20;;;0.40;;
55090;SDS011;40985;53.180;5.800;2023-09-19T02:56:20;8.20;;;0.60;;
55090;SDS011;40985;53.180;5.800;2023-09-19T02:58:45;8.77;;;0.65;;
55090;SDS011;40985;53.180;5.800;2023-09-19T03:01:13;12.52;;;0.52;;
55090;SDS011;40985;53.180;5.800;2023-09-19T03:03:43;6.47;;;0.60;;
55090;SDS011;40985;53.180;5.800;2023-09-19T03:06:10;7.78;;;1.77;;
55090;SDS011;40985;53.180;5.800;2023-09-19T03:08:38;6.47;;;0.77;;
55090;SDS011;40985;53.180;5.800;2023-09-19T03:11:07;6.85;;;0.40;;
55090;SDS011;40985;53.180;5.800;2023-09-19T03:13:36;9.68;;;0.50;;
55090;SDS011;40985;53.180;5.800;2023-09-19T03:16:03;9.50;;;0.50;;
55090;SDS011;40985;53.180;5.800;2023-09-19T03:18:31;10.05;;;0.73;;
55090;SDS011;40985;53.180;5.800;2023-09-19T03:20:58;6.07;;;0.65;;
55090;SDS011;40985;53.180;5.800;2023-09-19T03:23:25;10.07;;;0.45;;
55090;SDS011;40985;53.180;5.800;2023-09-19T03:25:52;6.97;;;0.40;;
55090;SDS011;40985;53.180;5.800;2023-09-19T03:28:18;10.45;;;1.05;;
55090;SDS011;40985;53.180;5.800;2023-09-19T03:30:46;6.50;;;0.77;;
55090;SDS011;40985;53.180;5.800;2023-09-19T03:33:11;9.60;;;0.85;;
55090;SDS011;40985;53.180;5.800;2023-09-19T03:35:38;7.03;;;0.50;;
55090;SDS011;40985;53.180;5.800;2023-09-19T03:38:05;8.85;;;0.70;;
55090;SDS011;40985;53.180;5.800;2023-09-19T03:40:30;9.32;;;0.50;;
55090;SDS011;40985;53.180;5.800;2023-09-19T03:42:56;5.10;;;0.60;;
55090;SDS011;40985;53.180;5.800;2023-09-19T03:45:25;10.63;;;1.17;;
55090;SDS011;40985;53.180;5.800;2023-09-19T03:47:50;10.50;;;0.50;;
55090;SDS011;40985;53.180;5.800;2023-09-19T03:50:16;7.57;;;0.50;;
55090;SDS011;40985;53.180;5.800;2023-09-19T03:52:42;9.20;;;0.50;;
55090;SDS011;40985;53.180;5.800;2023-09-19T03:55:09;5.18;;;0.40;;
55090;SDS011;40985;53.180;5.800;2023-09-19T03:57:37;7.88;;;0.60;;
55090;SDS011;40985;53.180;5.800;2023-09-19T04:00:03;11.98;;;0.93;;
55090;SDS011;40985;53.180;5.800;2023-09-19T04:02:37;12.73;;;1.02;;
55090;SDS011;40985;53.180;5.800;2023-09-19T04:05:03;8.82;;;0.88;;
55090;SDS011;40985;53.180;5.800;2023-09-19T04:07:29;11.35;;;0.95;;
55090;SDS011;40985;53.180;5.800;2023-09-19T04:09:55;8.60;;;0.60;;
55090;SDS011;40985;53.180;5.800;2023-09-19T04:12:21;9.60;;;0.82;;
55090;SDS011;40985;53.180;5.800;2023-09-19T04:14:47;8.70;;;0.50;;
55090;SDS011;40985;53.180;5.800;2023-09-19T04:17:14;5.68;;;0.50;;
55090;SDS011;40985;53.180;5.800;2023-09-19T04:19:39;10.68;;;0.50;;
55090;SDS011;40985;53.180;5.800;2023-09-19T04:22:06;5.68;;;0.32;;
55090;SDS011;40985;53.180;5.800;2023-09-19T04:24:32;7.38;;;0.38;;
55090;SDS011;40985;53.180;5.800;2023-09-19T04:26:59;10.85;;;0.60;;
55090;SDS011;40985;53.180;5.800;2023-09-19T04:29:24;7.13;;;0.45;;
55090;SDS011;40985;53.180;5.800;2023-09-19T04:31:51;7.25;;;0.40;;
55090;SDS011;40985;53.180;5.800;2023-09-19T04:34:17;5.50;;;0.77;;
55090;SDS011;40985;53.180;5.800;2023-09-19T04:36:43;7.55;;;0.55;;
55090;SDS011;40985;53.180;5.800;2023-09-19T04:39:09;7.50;;;0.73;;
55090;SDS011;40985;53.180;5.800;2023-09-19T04:41:37;7.40;;;0.60;;
55090;SDS011;40985;53.180;5.800;2023-09-19T04:44:05;10.20;;;0.30;;
55090;SDS011;40985;53.180;5.800;2023-09-19T04:46:32;7.45;;;0.60;;
55090;SDS011;40985;53.180;5.800;2023-09-19T04:48:58;6.97;;;0.55;;
55090;SDS011;40985;53.180;5.800;2023-09-19T04:51:24;9.15;;;2.05;;
55090;SDS011;40985;53.180;5.800;2023-09-19T04:53:51;9.20;;;1.08;;
55090;SDS011;40985;53.180;5.800;2023-09-19T04:56:17;7.75;;;1.30;;
55090;SDS011;40985;53.180;5.800;2023-09-19T04:58:44;5.88;;;0.40;;
55090;SDS011;40985;53.180;5.800;2023-09-19T05:01:09;7.88;;;1.00;;
55090;SDS011;40985;53.180;5.800;2023-09-19T05:03:37;10.43;;;0.80;;
55090;SDS011;40985;53.180;5.800;2023-09-19T05:06:03;8.90;;;0.43;;
55090;SDS011;40985;53.180;5.800;2023-09-19T05:08:30;7.60;;;0.95;;
55090;SDS011;40985;53.180;5.800;2023-09-19T05:10:56;9.60;;;0.70;;
55090;SDS011;40985;53.180;5.800;2023-09-19T05:13:21;7.30;;;0.68;;
55090;SDS011;40985;53.180;5.800;2023-09-19T05:15:49;8.10;;;0.60;;
55090;SDS011;40985;53.180;5.800;2023-09-19T05:18:17;12.13;;;0.70;;
55090;SDS011;40985;53.180;5.800;2023-09-19T05:20:43;7.75;;;0.60;;
55090;SDS011;40985;53.180;5.800;2023-09-19T05:23:09;7.38;;;0.40;;
55090;SDS011;40985;53.180;5.800;2023-09-19T05:25:36;9.25;;;0.50;;
55090;SDS011;40985;53.180;5.800;2023-09-19T05:28:03;11.15;;;1.08;;
55090;SDS011;40985;53.180;5.800;2023-09-19T05:30:30;8.60;;;0.55;;
55090;SDS011;40985;53.180;5.800;2023-09-19T05:32:57;4.78;;;0.35;;
55090;SDS011;40985;53.180;5.800;2023-09-19T05:35:23;6.97;;;0.47;;
55090;SDS011;40985;53.180;5.800;2023-09-19T05:37:52;9.65;;;0.60;;
55090;SDS011;40985;53.180;5.800;2023-09-19T05:40:19;6.18;;;0.90;;
55090;SDS011;40985;53.180;5.800;2023-09-19T05:42:46;11.52;;;1.08;;
55090;SDS011;40985;53.180;5.800;2023-09-19T05:45:12;9.27;;;0.82;;
55090;SDS011;40985;53.180;5.800;2023-09-19T05:47:42;12.02;;;1.05;;
55090;SDS011;40985;53.180;5.800;2023-09-19T05:52:37;8.48;;;0.60;;
55090;SDS011;40985;53.180;5.800;2023-09-19T05:55:06;7.30;;;1.02;;
55090;SDS011;40985;53.180;5.800;2023-09-19T05:57:33;11.70;;;0.75;;
55090;SDS011;40985;53.180;5.800;2023-09-19T06:00:07;15.38;;;2.38;;
55090;SDS011;40985;53.180;5.800;2023-09-19T06:02:35;11.85;;;0.60;;
55090;SDS011;40985;53.180;5.800;2023-09-19T06:05:03;9.65;;;0.63;;
55090;SDS011;40985;53.180;5.800;2023-09-19T06:07:31;10.15;;;0.57;;
55090;SDS011;40985;53.180;5.800;2023-09-19T06:10:04;8.80;;;0.57;;
55090;SDS011;40985;53.180;5.800;2023-09-19T06:12:31;6.43;;;0.43;;
55090;SDS011;40985;53.180;5.800;2023-09-19T06:15:02;11.50;;;1.23;;
55090;SDS011;40985;53.180;5.800;2023-09-19T06:17:30;11.27;;;0.70;;
55090;SDS011;40985;53.180;5.800;2023-09-19T06:19:56;8.60;;;1.70;;
55090;SDS011;40985;53.180;5.800;2023-09-19T06:22:21;7.07;;;0.70;;
55090;SDS011;40985;53.180;5.800;2023-09-19T06:24:49;8.98;;;0.77;;
55090;SDS011;40985;53.180;5.800;2023-09-19T06:27:15;12.52;;;0.80;;
55090;SDS011;40985;53.180;5.800;2023-09-19T06:29:41;7.75;;;0.88;;
55090;SDS011;40985;53.180;5.800;2023-09-19T06:32:09;5.18;;;1.17;;
55090;SDS011;40985;53.180;5.800;2023-09-19T06:34:36;11.27;;;1.15;;
55090;SDS011;40985;53.180;5.800;2023-09-19T06:37:03;7.07;;;0.60;;
55090;SDS011;40985;53.180;5.800;2023-09-19T06:39:31;5.50;;;0.43;;
55090;SDS011;40985;53.180;5.800;2023-09-19T06:41:57;10.32;;;0.60;;
55090;SDS011;40985;53.180;5.800;2023-09-19T06:44:23;8.25;;;0.68;;
55090;SDS011;40985;53.180;5.800;2023-09-19T06:46:50;9.38;;;0.75;;
55090;SDS011;40985;53.180;5.800;2023-09-19T06:49:16;7.72;;;0.43;;
55090;SDS011;40985;53.180;5.800;2023-09-19T06:51:43;8.25;;;0.63;;
55090;SDS011;40985;53.180;5.800;2023-09-19T06:54:09;7.72;;;0.38;;
55090;SDS011;40985;53.180;5.800;2023-09-19T06:56:35;8.95;;;0.75;;
55090;SDS011;40985;53.180;5.800;2023-09-19T06:59:01;5.88;;;0.75;;
55090;SDS011;40985;53.180;5.800;2023-09-19T07:01:28;7.40;;;1.10;;
55090;SDS011;40985;53.180;5.800;2023-09-19T07:03:54;4.40;;;0.38;;
55090;SDS011;40985;53.180;5.800;2023-09-19T07:06:19;3.85;;;0.93;;
55090;SDS011;40985;53.180;5.800;2023-09-19T07:08:45;5.88;;;0.40;;
55090;SDS011;40985;53.180;5.800;2023-09-19T07:11:11;6.03;;;0.70;;
55090;SDS011;40985;53.180;5.800;2023-09-19T07:13:37;13.38;;;0.68;;
55090;SDS011;40985;53.180;5.800;2023-09-19T07:16:04;10.38;;;0.93;;
55090;SDS011;40985;53.180;5.800;2023-09-19T07:18:30;8.38;;;0.80;;
55090;SDS011;40985;53.180;5.800;2023-09-19T07:20:57;11.25;;;0.50;;
55090;SDS011;40985;53.180;5.800;2023-09-19T07:23:30;10.38;;;1.75;;
55090;SDS011;40985;53.180;5.800;2023-09-19T07:26:00;7.20;;;0.45;;
55090;SDS011;40985;53.180;5.800;2023-09-19T07:28:26;8.68;;;0.57;;
55090;SDS011;40985;53.180;5.800;2023-09-19T07:30:53;10.02;;;0.68;;
55090;SDS011;40985;53.180;5.800;2023-09-19T07:33:19;15.02;;;1.25;;
55090;SDS011;40985;53.180;5.800;2023-09-19T07:35:48;11.70;;;1.00;;
55090;SDS011;40985;53.180;5.800;2023-09-19T07:38:14;7.88;;;0.70;;
55090;SDS011;40985;53.180;5.800;2023-09-19T07:40:39;6.60;;;0.68;;
55090;SDS011;40985;53.180;5.800;2023-09-19T07:43:05;8.18;;;0.65;;
55090;SDS011;40985;53.180;5.800;2023-09-19T07:45:31;9.98;;;1.27;;
55090;SDS011;40985;53.180;5.800;2023-09-19T07:47:57;8.25;;;0.95;;
55090;SDS011;40985;53.180;5.800;2023-09-19T07:50:25;10.02;;;1.15;;
55090;SDS011;40985;53.180;5.800;2023-09-19T07:52:51;7.65;;;0.52;;
55090;SDS011;40985;53.180;5.800;2023-09-19T07:55:18;8.25;;;1.00;;
55090;SDS011;40985;53.180;5.800;2023-09-19T07:57:48;10.65;;;0.93;;
55090;SDS011;40985;53.180;5.800;2023-09-19T08:00:14;7.22;;;0.95;;
55090;SDS011;40985;53.180;5.800;2023-09-19T08:02:40;10.68;;;1.58;;
55090;SDS011;40985;53.180;5.800;2023-09-19T08:05:07;6.05;;;0.63;;
55090;SDS011;40985;53.180;5.800;2023-09-19T08:07:37;8.07;;;0.70;;
55090;SDS011;40985;53.180;5.800;2023-09-19T08:10:07;9.88;;;0.80;;
55090;SDS011;40985;53.180;5.800;2023-09-19T08:12:36;8.77;;;0.77;;
55090;SDS011;40985;53.180;5.800;2023-09-19T08:15:02;9.80;;;0.50;;
55090;SDS011;40985;53.180;5.800;2023-09-19T08:17:28;9.75;;;1.30;;
55090;SDS011;40985;53.180;5.800;2023-09-19T08:19:58;10.55;;;0.93;;
55090;SDS011;40985;53.180;5.800;2023-09-19T08:22:25;7.85;;;0.60;;
55090;SDS011;40985;53.180;5.800;2023-09-19T08:24:52;7.70;;;0.70;;
55090;SDS011;40985;53.180;5.800;2023-09-19T08:27:18;10.70;;;0.65;;
55090;SDS011;40985;53.180;5.800;2023-09-19T08:29:44;9.38;;;0.80;;
55090;SDS011;40985;53.180;5.800;2023-09-19T08:32:11;9.25;;;1.38;;
55090;SDS011;40985;53.180;5.800;2023-09-19T08:34:37;8.77;;;0.65;;
55090;SDS011;40985;53.180;5.800;2023-09-19T08:37:03;9.32;;;1.02;;
55090;SDS011;40985;53.180;5.800;2023-09-19T08:39:29;9.68;;;0.95;;
55090;SDS011;40985;53.180;5.800;2023-09-19T08:41:58;8.00;;;0.60;;
55090;SDS011;40985;53.180;5.800;2023-09-19T08:44:25;9.27;;;1.00;;
55090;SDS011;40985;53.180;5.800;2023-09-19T08:46:54;7.18;;;0.55;;
55090;SDS011;40985;53.180;5.800;2023-09-19T08:52:03;12.35;;;0.80;;
55090;SDS011;40985;53.180;5.800;2023-09-19T08:54:37;10.00;;;0.80;;
55090;SDS011;40985;53.180;5.800;2023-09-19T08:57:05;11.88;;;1.77;;
55090;SDS011;40985;53.180;5.800;2023-09-19T08:59:39;8.95;;;0.85;;
55090;SDS011;40985;53.180;5.800;2023-09-19T09:02:10;10.02;;;0.90;;
55090;SDS011;40985;53.180;5.800;2023-09-19T09:04:41;10.10;;;1.13;;
55090;SDS011;40985;53.180;5.800;2023-09-19T09:07:11;7.40;;;0.88;;
55090;SDS011;40985;53.180;5.800;2023-09-19T09:09:38;4.78;;;0.75;;
55090;SDS011;40985;53.180;5.800;2023-09-19T09:12:12;8.52;;;0.70;;
55090;SDS011;40985;53.180;5.800;2023-09-19T09:14:40;9.07;;;1.02;;
55090;SDS011;40985;53.180;5.800;2023-09-19T09:17:10;8.85;;;1.10;;
55090;SDS011;40985;53.180;5.800;2023-09-19T09:19:36;6.78;;;0.88;;
55090;SDS011;40985;53.180;5.800;2023-09-19T09:22:06;14.98;;;1.20;;
55090;SDS011;40985;53.180;5.800;2023-09-19T09:24:35;11.10;;;1.08;;
55090;SDS011;40985;53.180;5.800;2023-09-19T09:27:04;9.93;;;0.68;;
55090;SDS011;40985;53.180;5.800;2023-09-19T09:29:42;8.48;;;0.88;;
55090;SDS011;40985;53.180;5.800;2023-09-19T09:32:19;11.95;;;1.33;;
55090;SDS011;40985;53.180;5.800;2023-09-19T09:34:59;8.98;;;1.00;;
55090;SDS011;40985;53.180;5.800;2023-09-19T09:37:25;12.15;;;1.20;;
55090;SDS011;40985;53.180;5.800;2023-09-19T09:39:58;12.23;;;2.20;;
55090;SDS011;40985;53.180;5.800;2023-09-19T09:42:57;10.38;;;1.10;;
55090;SDS011;40985;53.180;5.800;2023-09-19T09:45:25;9.07;;;0.95;;
55090;SDS011;40985;53.180;5.800;2023-09-19T09:48:02;11.35;;;1.20;;
55090;SDS011;40985;53.180;5.800;2023-09-19T09:50:29;11.73;;;1.10;;
55090;SDS011;40985;53.180;5.800;2023-09-19T09:53:24;8.30;;;0.70;;
55090;SDS011;40985;53.180;5.800;2023-09-19T09:56:00;11.18;;;1.42;;
55090;SDS011;40985;53.180;5.800;2023-09-19T09:58:33;10.98;;;2.03;;
55090;SDS011;40985;53.180;5.800;2023-09-19T10:01:00;10.27;;;1.02;;
55090;SDS011;40985;53.180;5.800;2023-09-19T10:03:36;12.95;;;1.25;;
55090;SDS011;40985;53.180;5.800;2023-09-19T10:06:15;10.63;;;1.05;;
55090;SDS011;40985;53.180;5.800;2023-09-19T10:09:07;8.77;;;1.20;;
55090;SDS011;40985;53.180;5.800;2023-09-19T10:16:40;10.30;;;0.60;;
55090;SDS011;40985;53.180;5.800;2023-09-19T10:19:15;10.07;;;1.30;;
55090;SDS011;40985;53.180;5.800;2023-09-19T10:22:11;10.93;;;1.15;;
55090;SDS011;40985;53.180;5.800;2023-09-19T10:24:39;9.60;;;1.08;;
55090;SDS011;40985;53.180;5.800;2023-09-19T10:27:06;10.07;;;1.85;;
55090;SDS011;40985;53.180;5.800;2023-09-19T10:29:34;12.27;;;1.30;;
55090;SDS011;40985;53.180;5.800;2023-09-19T10:32:04;9.00;;;1.30;;
55090;SDS011;40985;53.180;5.800;2023-09-19T10:34:37;10.80;;;1.27;;
55090;SDS011;40985;53.180;5.800;2023-09-19T10:37:06;12.43;;;1.15;;
55090;SDS011;40985;53.180;5.800;2023-09-19T10:39:37;11.05;;;1.38;;
55090;SDS011;40985;53.180;5.800;2023-09-19T10:42:06;11.27;;;0.85;;
55090;SDS011;40985;53.180;5.800;2023-09-19T10:44:34;9.07;;;0.90;;
55090;SDS011;40985;53.180;5.800;2023-09-19T10:47:07;10.98;;;1.10;;
55090;SDS011;40985;53.180;5.800;2023-09-19T10:49:33;11.02;;;1.33;;
55090;SDS011;40985;53.180;5.800;2023-09-19T10:51:59;11.95;;;1.30;;
55090;SDS011;40985;53.180;5.800;2023-09-19T10:54:31;12.10;;;1.10;;
55090;SDS011;40985;53.180;5.800;2023-09-19T10:57:02;12.55;;;1.13;;
55090;SDS011;40985;53.180;5.800;2023-09-19T10:59:30;10.00;;;1.23;;
55090;SDS011;40985;53.180;5.800;2023-09-19T11:01:59;11.23;;;1.27;;
55090;SDS011;40985;53.180;5.800;2023-09-19T11:04:40;13.98;;;1.58;;
55090;SDS011;40985;53.180;5.800;2023-09-19T11:12:11;9.48;;;2.33;;
55090;SDS011;40985;53.180;5.800;2023-09-19T11:14:37;8.05;;;0.80;;
55090;SDS011;40985;53.180;5.800;2023-09-19T11:43:45;10.75;;;1.38;;
55090;SDS011;40985;53.180;5.800;2023-09-19T11:46:12;10.52;;;1.27;;
55090;SDS011;40985;53.180;5.800;2023-09-19T11:48:42;13.35;;;1.23;;
55090;SDS011;40985;53.180;5.800;2023-09-19T11:51:37;12.45;;;1.42;;
55090;SDS011;40985;53.180;5.800;2023-09-19T11:54:04;16.23;;;2.67;;
55090;SDS011;40985;53.180;5.800;2023-09-19T11:56:42;14.05;;;1.90;;
55090;SDS011;40985;53.180;5.800;2023-09-19T11:59:10;12.07;;;1.42;;
55090;SDS011;40985;53.180;5.800;2023-09-19T12:01:37;11.55;;;1.48;;
55090;SDS011;40985;53.180;5.800;2023-09-19T12:04:08;8.27;;;1.35;;
55090;SDS011;40985;53.180;5.800;2023-09-19T12:06:37;11.40;;;1.73;;
55090;SDS011;40985;53.180;5.800;2023-09-19T12:09:07;12.75;;;1.33;;
55090;SDS011;40985;53.180;5.800;2023-09-19T12:11:42;11.23;;;1.20;;
55090;SDS011;40985;53.180;5.800;2023-09-19T12:14:11;9.50;;;1.13;;
55090;SDS011;40985;53.180;5.800;2023-09-19T12:16:56;14.52;;;1.13;;
55090;SDS011;40985;53.180;5.800;2023-09-19T12:19:23;8.38;;;0.82;;
55090;SDS011;40985;53.180;5.800;2023-09-19T12:21:53;7.53;;;0.50;;
55090;SDS011;40985;53.180;5.800;2023-09-19T12:24:24;9.32;;;0.90;;
55090;SDS011;40985;53.180;5.800;2023-09-19T12:26:54;9.52;;;1.13;;
55090;SDS011;40985;53.180;5.800;2023-09-19T12:29:26;5.20;;;0.97;;
55090;SDS011;40985;53.180;5.800;2023-09-19T12:31:53;10.57;;;0.65;;
55090;SDS011;40985;53.180;5.800;2023-09-19T12:34:25;5.72;;;0.70;;
55090;SDS011;40985;53.180;5.800;2023-09-19T12:39:51;6.18;;;0.98;;
55090;SDS011;40985;53.180;5.800;2023-09-19T12:44:52;8.20;;;0.70;;
55090;SDS011;40985;53.180;5.800;2023-09-19T12:47:22;10.68;;;0.60;;
55090;SDS011;40985;53.180;5.800;2023-09-19T12:52:42;8.02;;;0.90;;
55090;SDS011;40985;53.180;5.800;2023-09-19T12:55:22;8.48;;;1.50;;
55090;SDS011;40985;53.180;5.800;2023-09-19T12:57:58;6.28;;;0.88;;
55090;SDS011;40985;53.180;5.800;2023-09-19T13:00:43;9.25;;;0.75;;
55090;SDS011;40985;53.180;5.800;2023-09-19T13:05:56;7.93;;;0.50;;
55090;SDS011;40985;53.180;5.800;2023-09-19T13:08:30;6.63;;;0.68;;
55090;SDS011;40985;53.180;5.800;2023-09-19T13:11:13;6.65;;;0.63;;
55090;SDS011;40985;53.180;5.800;2023-09-19T13:16:09;5.43;;;0.77;;
55090;SDS011;40985;53.180;5.800;2023-09-19T13:18:46;7.18;;;0.90;;
55090;SDS011;40985;53.180;5.800;2023-09-19T13:21:16;9.45;;;0.90;;
55090;SDS011;40985;53.180;5.800;2023-09-19T13:26:15;7.05;;;0.73;;
55090;SDS011;40985;53.180;5.800;2023-09-19T13:28:41;5.70;;;0.80;;
55090;SDS011;40985;53.180;5.800;2023-09-19T13:31:06;5.70;;;0.50;;
55090;SDS011;40985;53.180;5.800;2023-09-19T13:33:35;5.75;;;0.65;;
55090;SDS011;40985;53.180;5.800;2023-09-19T13:36:10;4.78;;;0.50;;
55090;SDS011;40985;53.180;5.800;2023-09-19T13:38:37;10.93;;;0.55;;
55090;SDS011;40985;53.180;5.800;2023-09-19T13:41:03;6.32;;;0.77;;
55090;SDS011;40985;53.180;5.800;2023-09-19T13:43:28;7.63;;;0.90;;
55090;SDS011;40985;53.180;5.800;2023-09-19T13:45:54;5.53;;;0.57;;
55090;SDS011;40985;53.180;5.800;2023-09-19T13:48:20;7.45;;;0.70;;
55090;SDS011;40985;53.180;5.800;2023-09-19T13:50:48;6.60;;;0.50;;
55090;SDS011;40985;53.180;5.800;2023-09-19T13:53:14;6.90;;;0.50;;
55090;SDS011;40985;53.180;5.800;2023-09-19T13:55:40;6.57;;;0.57;;
55090;SDS011;40985;53.180;5.800;2023-09-19T13:58:06;4.35;;;0.40;;
55090;SDS011;40985;53.180;5.800;2023-09-19T14:00:32;5.45;;;0.77;;
55090;SDS011;40985;53.180;5.800;2023-09-19T14:03:01;4.55;;;0.60;;
55090;SDS011;40985;53.180;5.800;2023-09-19T14:05:27;7.88;;;0.90;;
55090;SDS011;40985;53.180;5.800;2023-09-19T14:07:53;7.35;;;0.80;;
55090;SDS011;40985;53.180;5.800;2023-09-19T14:10:24;6.00;;;0.75;;
55090;SDS011;40985;53.180;5.800;2023-09-19T14:12:52;6.82;;;0.90;;
55090;SDS011;40985;53.180;5.800;2023-09-19T14:15:18;11.00;;;1.38;;
55090;SDS011;40985;53.180;5.800;2023-09-19T14:17:43;10.25;;;1.00;;
55090;SDS011;40985;53.180;5.800;2023-09-19T14:20:12;9.18;;;1.08;;
55090;SDS011;40985;53.180;5.800;2023-09-19T14:22:39;11.45;;;1.30;;
55090;SDS011;40985;53.180;5.800;2023-09-19T14:25:05;9.20;;;1.30;;
55090;SDS011;40985;53.180;5.800;2023-09-19T14:27:31;10.00;;;1.38;;
55090;SDS011;40985;53.180;5.800;2023-09-19T14:29:56;7.88;;;1.38;;
55090;SDS011;40985;53.180;5.800;2023-09-19T14:32:22;7.25;;;2.05;;
55090;SDS011;40985;53.180;5.800;2023-09-19T14:34:48;9.25;;;1.30;;
55090;SDS011;40985;53.180;5.800;2023-09-19T14:37:14;13.77;;;1.55;;
55090;SDS011;40985;53.180;5.800;2023-09-19T14:39:41;9.02;;;1.20;;
55090;SDS011;40985;53.180;5.800;2023-09-19T14:42:09;12.10;;;1.30;;
55090;SDS011;40985;53.180;5.800;2023-09-19T14:44:36;12.88;;;1.48;;
55090;SDS011;40985;53.180;5.800;2023-09-19T14:47:04;11.57;;;1.33;;
55090;SDS011;40985;53.180;5.800;2023-09-19T14:49:33;11.77;;;1.25;;
55090;SDS011;40985;53.180;5.800;2023-09-19T14:52:00;8.40;;;0.95;;
55090;SDS011;40985;53.180;5.800;2023-09-19T14:54:29;9.63;;;1.08;;
55090;SDS011;40985;53.180;5.800;2023-09-19T14:56:56;9.07;;;1.27;;
55090;SDS011;40985;53.180;5.800;2023-09-19T14:59:32;13.65;;;1.63;;
55090;SDS011;40985;53.180;5.800;2023-09-19T15:02:04;16.00;;;1.50;;
55090;SDS011;40985;53.180;5.800;2023-09-19T15:04:30;16.27;;;2.10;;
55090;SDS011;40985;53.180;5.800;2023-09-19T15:06:56;19.92;;;2.22;;
55090;SDS011;40985;53.180;5.800;2023-09-19T15:09:23;16.52;;;2.88;;
55090;SDS011;40985;53.180;5.800;2023-09-19T15:11:51;12.35;;;2.63;;
55090;SDS011;40985;53.180;5.800;2023-09-19T15:14:18;16.77;;;1.73;;
55090;SDS011;40985;53.180;5.800;2023-09-19T15:16:44;9.75;;;1.42;;
55090;SDS011;40985;53.180;5.800;2023-09-19T15:19:09;17.33;;;2.40;;
55090;SDS011;40985;53.180;5.800;2023-09-19T15:21:35;10.80;;;1.50;;
55090;SDS011;40985;53.180;5.800;2023-09-19T15:24:02;16.13;;;2.10;;
55090;SDS011;40985;53.180;5.800;2023-09-19T15:26:28;19.33;;;3.38;;
55090;SDS011;40985;53.180;5.800;2023-09-19T15:28:55;20.67;;;3.25;;
55090;SDS011;40985;53.180;5.800;2023-09-19T15:31:21;14.82;;;2.95;;
55090;SDS011;40985;53.180;5.800;2023-09-19T15:33:47;24.05;;;3.15;;
55090;SDS011;40985;53.180;5.800;2023-09-19T15:36:14;20.52;;;2.58;;
55090;SDS011;40985;53.180;5.800;2023-09-19T15:38:59;12.65;;;2.75;;
55090;SDS011;40985;53.180;5.800;2023-09-19T15:41:49;15.77;;;1.98;;
55090;SDS011;40985;53.180;5.800;2023-09-19T15:44:16;14.13;;;2.55;;
55090;SDS011;40985;53.180;5.800;2023-09-19T15:46:44;11.57;;;2.28;;
55090;SDS011;40985;53.180;5.800;2023-09-19T15:49:10;13.38;;;2.35;;
55090;SDS011;40985;53.180;5.800;2023-09-19T15:51:36;11.55;;;2.13;;
55090;SDS011;40985;53.180;5.800;2023-09-19T15:54:07;8.75;;;1.27;;
55090;SDS011;40985;53.180;5.800;2023-09-19T15:56:35;13.90;;;2.35;;
55090;SDS011;40985;53.180;5.800;2023-09-19T15:59:01;14.48;;;1.77;;
55090;SDS011;40985;53.180;5.800;2023-09-19T16:01:27;12.38;;;2.30;;
55090;SDS011;40985;53.180;5.800;2023-09-19T16:03:53;12.30;;;1.83;;
55090;SDS011;40985;53.180;5.800;2023-09-19T16:06:22;14.50;;;2.22;;
55090;SDS011;40985;53.180;5.800;2023-09-19T16:08:49;12.48;;;2.20;;